createdAt,value
2023-10-29T00:00:44.425Z,1.15
2023-10-29T00:03:12.235Z,1.20
2023-10-29T00:05:40.038Z,1.25
2023-10-29T00:08:10.087Z,1.00
2023-10-29T00:10:37.850Z,1.30
2023-10-29T00:13:05.596Z,1.40
2023-10-29T00:15:33.280Z,1.00
2023-10-29T00:18:01.576Z,1.00
2023-10-29T00:20:29.238Z,1.05
2023-10-29T00:22:56.868Z,0.90
2023-10-29T00:25:24.436Z,1.20
2023-10-29T00:27:52.238Z,1.20
2023-10-29T00:30:19.897Z,1.00
2023-10-29T00:32:47.636Z,0.95
2023-10-29T00:35:16.391Z,1.13
2023-10-29T00:37:43.983Z,1.13
2023-10-29T00:40:11.778Z,1.13
2023-10-29T00:42:39.393Z,1.00
2023-10-29T00:45:07.247Z,1.20
2023-10-29T00:47:34.938Z,1.10
2023-10-29T00:50:02.588Z,1.05
2023-10-29T00:52:30.238Z,1.00
2023-10-29T00:54:57.888Z,1.10
2023-10-29T00:57:25.712Z,1.27
2023-10-29T00:59:53.793Z,1.05
2023-10-29T01:02:21.518Z,1.48
2023-10-29T01:04:49.299Z,1.10
2023-10-29T01:07:18.195Z,1.30
2023-10-29T01:09:47.299Z,1.13
2023-10-29T01:12:19.379Z,1.10
2023-10-29T01:14:47.485Z,1.13
2023-10-29T01:17:15.860Z,1.08
2023-10-29T01:19:43.555Z,1.10
2023-10-29T01:22:11.194Z,1.10
2023-10-29T01:24:40.428Z,1.20
2023-10-29T01:27:08.933Z,1.10
2023-10-29T01:29:36.666Z,1.13
2023-10-29T01:32:04.384Z,1.00
2023-10-29T01:34:32.188Z,1.23
2023-10-29T01:36:59.797Z,1.20
2023-10-29T01:39:27.378Z,1.27
2023-10-29T01:41:57.388Z,1.10
2023-10-29T01:44:25.099Z,1.30
2023-10-29T01:46:52.810Z,1.10
2023-10-29T01:49:20.414Z,1.60
2023-10-29T01:51:47.995Z,1.20
2023-10-29T01:54:15.634Z,1.65
2023-10-29T01:56:43.658Z,1.30
2023-10-29T01:59:13.896Z,1.30
2023-10-29T02:01:41.822Z,1.30
2023-10-29T02:04:10.276Z,1.10
2023-10-29T02:06:42.639Z,1.00
2023-10-29T02:09:10.910Z,1.10
2023-10-29T02:11:39.123Z,1.35
2023-10-29T02:14:07.256Z,1.13
2023-10-29T02:16:34.960Z,1.15
2023-10-29T02:19:02.595Z,1.20
2023-10-29T02:21:30.515Z,1.10
2023-10-29T02:24:02.050Z,1.48
2023-10-29T02:26:29.909Z,1.40
2023-10-29T02:28:57.651Z,1.30
2023-10-29T02:31:25.425Z,1.20
2023-10-29T02:33:53.101Z,1.30
2023-10-29T02:36:20.689Z,1.20
2023-10-29T02:38:48.419Z,1.08
2023-10-29T02:41:16.080Z,1.20
2023-10-29T02:43:43.723Z,1.10
2023-10-29T02:46:11.976Z,1.20
2023-10-29T02:48:39.864Z,1.10
2023-10-29T02:51:12.092Z,1.08
2023-10-29T02:53:41.162Z,1.02
2023-10-29T02:56:08.816Z,1.10
2023-10-29T02:58:36.508Z,1.10
2023-10-29T03:01:05.272Z,1.10
2023-10-29T03:03:33.468Z,1.00
2023-10-29T03:06:09.123Z,1.30
2023-10-29T03:08:37.303Z,1.05
2023-10-29T03:11:05.307Z,1.33
2023-10-29T03:13:32.929Z,1.00
2023-10-29T03:16:00.703Z,1.25
2023-10-29T03:18:30.489Z,1.13
2023-10-29T03:20:58.306Z,1.55
2023-10-29T03:23:26.032Z,1.20
2023-10-29T03:25:55.038Z,1.00
2023-10-29T03:28:22.670Z,0.80
2023-10-29T03:30:50.250Z,1.08
2023-10-29T03:33:18.066Z,0.80
2023-10-29T03:35:45.815Z,1.00
2023-10-29T03:38:13.448Z,1.00
2023-10-29T03:40:41.088Z,1.00
2023-10-29T03:43:09.284Z,0.88
2023-10-29T03:45:36.909Z,1.10
2023-10-29T03:48:04.646Z,1.00
2023-10-29T03:50:32.355Z,1.10
2023-10-29T03:52:59.966Z,0.98
2023-10-29T03:55:28.010Z,0.80
2023-10-29T03:57:55.651Z,0.80
2023-10-29T04:00:24.033Z,0.90
2023-10-29T04:02:52.274Z,1.08
2023-10-29T04:05:19.938Z,0.90
2023-10-29T04:07:47.495Z,0.75
2023-10-29T04:10:15.132Z,0.90
2023-10-29T04:12:42.719Z,1.15
2023-10-29T04:15:10.576Z,0.98
2023-10-29T04:17:38.245Z,0.90
2023-10-29T04:20:07.021Z,0.60
2023-10-29T04:22:34.705Z,1.00
2023-10-29T04:25:02.370Z,0.80
2023-10-29T04:27:29.958Z,0.88
2023-10-29T04:29:57.623Z,1.00
2023-10-29T04:32:25.437Z,1.10
2023-10-29T04:34:53.092Z,1.20
2023-10-29T04:37:20.681Z,0.93
2023-10-29T04:39:50.314Z,0.77
2023-10-29T04:42:18.135Z,1.02
2023-10-29T04:44:46.045Z,0.80
2023-10-29T04:47:13.999Z,1.00
2023-10-29T04:49:41.645Z,0.90
2023-10-29T04:52:09.210Z,0.82
2023-10-29T04:54:37.686Z,1.10
2023-10-29T04:57:05.402Z,1.10
2023-10-29T04:59:33.187Z,0.90
2023-10-29T05:02:00.865Z,0.90
2023-10-29T05:04:28.522Z,1.08
2023-10-29T05:06:56.124Z,0.80
2023-10-29T05:09:23.749Z,0.90
2023-10-29T05:11:51.399Z,1.05
2023-10-29T05:14:19.099Z,1.00
2023-10-29T05:16:46.797Z,0.77
2023-10-29T05:19:14.944Z,0.60
2023-10-29T05:21:42.803Z,0.95
2023-10-29T05:24:10.518Z,0.82
2023-10-29T05:26:38.351Z,0.70
2023-10-29T05:29:06.175Z,0.88
2023-10-29T05:31:34.048Z,0.88
2023-10-29T05:34:02.477Z,0.90
2023-10-29T05:36:30.106Z,1.00
2023-10-29T05:38:58.094Z,0.82
2023-10-29T05:41:26.388Z,0.80
2023-10-29T05:43:53.984Z,0.80
2023-10-29T05:46:23.604Z,0.60
2023-10-29T05:48:51.836Z,1.00
2023-10-29T05:51:20.174Z,0.90
2023-10-29T05:53:48.641Z,0.73
2023-10-29T05:56:16.290Z,0.88
2023-10-29T05:58:43.956Z,1.08
2023-10-29T06:01:11.862Z,0.98
2023-10-29T06:03:39.775Z,0.93
2023-10-29T06:06:07.527Z,1.13
2023-10-29T06:08:35.202Z,1.00
2023-10-29T06:11:02.838Z,0.90
2023-10-29T06:13:30.427Z,0.98
2023-10-29T06:15:58.318Z,1.10
2023-10-29T06:18:26.527Z,1.02
2023-10-29T06:20:54.751Z,0.80
2023-10-29T06:23:22.436Z,1.13
2023-10-29T06:25:50.019Z,1.00
2023-10-29T06:28:17.631Z,1.13
2023-10-29T06:30:45.365Z,0.80
2023-10-29T06:33:13.077Z,0.98
2023-10-29T06:35:41.710Z,0.85
2023-10-29T06:38:09.555Z,0.80
2023-10-29T06:40:37.150Z,0.90
2023-10-29T06:43:04.862Z,0.90
2023-10-29T06:45:32.522Z,0.98
2023-10-29T06:48:00.210Z,0.80
2023-10-29T06:50:27.967Z,1.20
2023-10-29T06:52:55.607Z,0.85
2023-10-29T06:55:24.266Z,1.17
2023-10-29T06:57:51.923Z,0.90
2023-10-29T07:00:19.578Z,0.98
2023-10-29T07:02:47.872Z,1.00
2023-10-29T07:05:15.638Z,0.95
2023-10-29T07:07:43.515Z,1.40
2023-10-29T07:10:11.220Z,1.00
2023-10-29T07:12:40.461Z,0.90
2023-10-29T07:15:10.968Z,0.80
2023-10-29T07:17:38.758Z,1.00
2023-10-29T07:20:06.623Z,0.90
2023-10-29T07:22:34.272Z,1.02
2023-10-29T07:25:01.890Z,1.17
2023-10-29T07:27:29.478Z,0.90
2023-10-29T07:29:57.122Z,0.90
2023-10-29T07:32:24.732Z,1.10
2023-10-29T07:34:52.339Z,0.95
2023-10-29T07:37:19.968Z,1.00
2023-10-29T07:39:47.572Z,1.10
2023-10-29T07:42:15.207Z,0.95
2023-10-29T07:44:42.832Z,0.80
2023-10-29T07:47:11.289Z,0.77
2023-10-29T07:49:38.999Z,0.80
2023-10-29T07:52:07.857Z,0.90
2023-10-29T07:54:35.536Z,0.85
2023-10-29T07:57:03.208Z,1.00
2023-10-29T07:59:30.917Z,1.20
2023-10-29T08:01:58.543Z,1.08
2023-10-29T08:04:29.191Z,0.98
2023-10-29T08:06:56.936Z,0.70
2023-10-29T08:09:24.631Z,1.05
2023-10-29T08:11:52.287Z,0.90
2023-10-29T08:14:19.913Z,1.00
2023-10-29T08:16:47.591Z,1.00
2023-10-29T08:19:16.125Z,0.80
2023-10-29T08:21:43.795Z,1.00
2023-10-29T08:24:11.472Z,1.20
2023-10-29T08:26:39.131Z,1.00
2023-10-29T08:29:07.341Z,1.00
2023-10-29T08:31:34.983Z,0.90
2023-10-29T08:34:02.653Z,0.70
2023-10-29T08:36:30.226Z,1.00
2023-10-29T08:38:57.848Z,0.73
2023-10-29T08:41:25.461Z,0.80
2023-10-29T08:43:53.383Z,0.70
2023-10-29T08:46:22.073Z,0.80
2023-10-29T08:48:52.210Z,0.80
2023-10-29T08:51:19.832Z,0.80
2023-10-29T08:53:47.441Z,0.88
2023-10-29T08:56:15.237Z,0.80
2023-10-29T08:58:43.272Z,1.00
2023-10-29T09:01:14.274Z,0.80
2023-10-29T09:03:42.120Z,0.90
2023-10-29T09:06:10.080Z,0.63
2023-10-29T09:08:38.958Z,0.68
2023-10-29T09:11:06.734Z,0.80
2023-10-29T09:13:34.390Z,0.75
2023-10-29T09:16:02.020Z,0.95
2023-10-29T09:18:30.126Z,0.80
2023-10-29T09:20:58.050Z,0.70
2023-10-29T09:23:25.746Z,0.75
2023-10-29T09:25:53.444Z,1.15
2023-10-29T09:28:22.127Z,0.85
2023-10-29T09:30:49.857Z,0.73
2023-10-29T09:33:17.662Z,0.65
2023-10-29T09:35:45.473Z,0.88
2023-10-29T09:38:13.220Z,1.02
2023-10-29T09:40:41.774Z,0.90
2023-10-29T09:43:10.262Z,0.95
2023-10-29T09:45:46.906Z,0.90
2023-10-29T09:48:17.669Z,0.70
2023-10-29T09:50:45.914Z,0.90
2023-10-29T09:53:13.921Z,0.85
2023-10-29T09:55:41.841Z,0.75
2023-10-29T09:58:10.315Z,0.70
2023-10-29T10:00:38.489Z,0.70
2023-10-29T10:03:06.291Z,0.70
2023-10-29T10:05:35.261Z,0.80
2023-10-29T10:08:02.870Z,0.90
2023-10-29T10:10:39.753Z,0.60
2023-10-29T10:13:07.672Z,0.73
2023-10-29T10:15:35.305Z,0.85
2023-10-29T10:18:05.679Z,0.80
2023-10-29T10:20:34.244Z,0.80
2023-10-29T10:23:12.509Z,1.00
2023-10-29T10:25:41.158Z,0.70
2023-10-29T10:28:08.826Z,1.00
2023-10-29T10:30:40.103Z,0.95
2023-10-29T10:33:20.073Z,0.88
2023-10-29T10:35:52.084Z,0.52
2023-10-29T10:40:59.433Z,0.75
2023-10-29T10:43:30.124Z,0.63
2023-10-29T10:46:01.195Z,0.82
2023-10-29T10:48:29.111Z,0.60
2023-10-29T10:50:58.792Z,0.60
2023-10-29T10:53:27.645Z,0.82
2023-10-29T10:56:03.995Z,0.68
2023-10-29T10:58:32.836Z,0.80
2023-10-29T11:01:00.753Z,0.80
2023-10-29T11:03:34.327Z,0.70
2023-10-29T11:06:03.911Z,1.00
2023-10-29T11:08:31.598Z,0.73
2023-10-29T11:10:59.660Z,0.63
2023-10-29T11:13:27.990Z,0.85
2023-10-29T11:15:56.545Z,0.90
2023-10-29T11:18:33.044Z,0.85
2023-10-29T11:21:01.770Z,0.80
2023-10-29T11:23:30.129Z,0.52
2023-10-29T11:26:16.696Z,0.60
2023-10-29T11:28:45.074Z,0.65
2023-10-29T11:31:15.664Z,0.70
2023-10-29T11:33:44.858Z,0.70
2023-10-29T11:36:34.243Z,0.63
2023-10-29T11:39:17.280Z,0.70
2023-10-29T11:41:45.938Z,0.88
2023-10-29T11:44:22.481Z,0.90
2023-10-29T11:46:59.655Z,1.25
2023-10-29T11:49:27.733Z,0.95
2023-10-29T11:51:57.350Z,0.80
2023-10-29T11:54:25.208Z,0.90
2023-10-29T11:56:53.497Z,1.00
2023-10-29T11:59:21.125Z,0.90
2023-10-29T12:01:48.715Z,1.50
2023-10-29T12:04:16.588Z,0.90
2023-10-29T12:06:45.131Z,1.20
2023-10-29T12:09:25.725Z,0.68
2023-10-29T12:11:54.403Z,0.98
2023-10-29T12:14:41.328Z,0.55
2023-10-29T12:17:09.534Z,0.80
2023-10-29T12:19:42.765Z,1.70
2023-10-29T12:22:18.218Z,1.00
2023-10-29T12:24:46.798Z,0.80
2023-10-29T12:27:15.169Z,1.00
2023-10-29T12:29:43.251Z,0.93
2023-10-29T12:32:18.210Z,1.23
2023-10-29T12:34:59.416Z,1.38
2023-10-29T12:37:30.861Z,1.50
2023-10-29T12:40:03.066Z,1.08
2023-10-29T12:42:53.199Z,1.50
2023-10-29T12:45:33.051Z,1.30
2023-10-29T12:48:09.973Z,1.65
2023-10-29T12:50:47.778Z,1.17
2023-10-29T12:53:41.910Z,1.30
2023-10-29T12:56:15.833Z,1.30
2023-10-29T12:58:43.414Z,1.50
2023-10-29T13:01:11.022Z,1.13
2023-10-29T13:03:38.664Z,1.10
2023-10-29T13:06:06.360Z,1.08
2023-10-29T13:08:34.044Z,1.40
2023-10-29T13:11:03.954Z,1.20
2023-10-29T13:13:32.831Z,1.15
2023-10-29T13:16:01.961Z,1.23
2023-10-29T13:18:29.587Z,1.65
2023-10-29T13:21:00.945Z,1.35
2023-10-29T13:23:28.546Z,1.15
2023-10-29T13:25:57.347Z,1.30
2023-10-29T13:28:25.054Z,1.30
2023-10-29T13:30:56.301Z,1.30
2023-10-29T13:33:25.267Z,1.17
2023-10-29T13:35:52.963Z,1.40
2023-10-29T13:38:20.929Z,1.30
2023-10-29T13:40:48.519Z,1.23
2023-10-29T13:43:16.165Z,1.10
2023-10-29T13:45:43.748Z,1.20
2023-10-29T13:48:11.409Z,1.10
2023-10-29T13:50:39.855Z,1.40
2023-10-29T13:53:07.500Z,1.30
2023-10-29T13:55:35.220Z,1.10
2023-10-29T13:58:03.602Z,1.30
2023-10-29T14:00:32.130Z,1.50
2023-10-29T14:02:59.884Z,1.40
2023-10-29T14:05:28.404Z,1.58
2023-10-29T14:07:58.563Z,1.30
2023-10-29T14:10:26.168Z,1.23
2023-10-29T14:12:53.723Z,1.13
2023-10-29T14:15:21.349Z,1.30
2023-10-29T14:17:49.107Z,1.10
2023-10-29T14:20:16.878Z,1.20
2023-10-29T14:22:44.549Z,1.30
2023-10-29T14:25:14.509Z,1.33
2023-10-29T14:27:42.090Z,1.60
2023-10-29T14:30:10.169Z,1.40
2023-10-29T14:32:37.879Z,1.40
2023-10-29T14:35:06.453Z,1.55
2023-10-29T14:37:34.229Z,1.30
2023-10-29T14:40:01.870Z,1.35
2023-10-29T14:42:32.476Z,1.10
2023-10-29T14:45:00.190Z,1.50
2023-10-29T14:47:28.059Z,1.48
2023-10-29T14:49:55.775Z,1.40
2023-10-29T14:52:23.348Z,1.50
2023-10-29T14:54:50.976Z,1.35
2023-10-29T14:57:28.947Z,1.40
2023-10-29T14:59:57.537Z,1.35
2023-10-29T15:02:25.600Z,1.85
2023-10-29T15:04:56.817Z,1.58
2023-10-29T15:07:24.960Z,1.40
2023-10-29T15:09:52.608Z,1.40
2023-10-29T15:12:20.590Z,1.60
2023-10-29T15:14:48.462Z,1.58
2023-10-29T15:17:20.857Z,1.60
2023-10-29T15:19:55.400Z,1.75
2023-10-29T15:22:23.087Z,1.60
2023-10-29T15:24:50.849Z,1.60
2023-10-29T15:27:18.748Z,1.77
2023-10-29T15:29:47.793Z,1.67
2023-10-29T15:32:15.415Z,2.00
2023-10-29T15:34:43.016Z,1.90
2023-10-29T15:37:10.602Z,2.13
2023-10-29T15:39:38.711Z,1.75
2023-10-29T15:42:06.543Z,2.00
2023-10-29T15:44:34.327Z,1.80
2023-10-29T15:47:01.926Z,1.80
2023-10-29T15:49:29.873Z,1.50
2023-10-29T15:51:58.545Z,1.40
2023-10-29T15:54:28.524Z,1.65
2023-10-29T15:56:56.140Z,1.50
2023-10-29T15:59:24.576Z,1.80
2023-10-29T16:01:53.323Z,1.42
2023-10-29T16:04:21.067Z,2.10
2023-10-29T16:06:48.674Z,2.08
2023-10-29T16:09:16.714Z,1.98
2023-10-29T16:11:48.145Z,1.80
2023-10-29T16:14:19.901Z,1.75
2023-10-29T16:16:47.767Z,1.85
2023-10-29T16:19:15.395Z,2.20
2023-10-29T16:21:44.530Z,1.95
2023-10-29T16:24:12.349Z,1.63
2023-10-29T16:26:40.015Z,2.30
2023-10-29T16:29:07.599Z,2.50
2023-10-29T16:31:35.433Z,2.25
2023-10-29T16:34:03.218Z,2.50
2023-10-29T16:36:30.941Z,2.85
2023-10-29T16:38:58.560Z,2.47
2023-10-29T16:41:26.280Z,2.60
2023-10-29T16:43:54.431Z,2.92
2023-10-29T16:46:22.397Z,2.13
2023-10-29T16:48:50.066Z,2.72
2023-10-29T16:51:17.794Z,2.50
2023-10-29T16:53:45.497Z,2.63
2023-10-29T16:56:13.511Z,2.50
2023-10-29T16:58:43.191Z,2.95
2023-10-29T17:01:14.050Z,2.78
2023-10-29T17:03:42.821Z,3.03
2023-10-29T17:06:10.665Z,2.85
2023-10-29T17:08:38.368Z,3.25
2023-10-29T17:11:05.992Z,2.92
2023-10-29T17:13:33.595Z,3.13
2023-10-29T17:16:03.202Z,2.70
2023-10-29T17:18:31.400Z,2.42
2023-10-29T17:21:00.355Z,2.63
2023-10-29T17:23:28.468Z,2.80
2023-10-29T17:25:57.595Z,2.50
2023-10-29T17:28:25.387Z,2.53
2023-10-29T17:30:53.059Z,3.22
2023-10-29T17:33:20.880Z,2.70
2023-10-29T17:35:48.691Z,2.72
2023-10-29T17:38:16.263Z,3.15
2023-10-29T17:40:43.830Z,2.45
2023-10-29T17:43:12.207Z,2.60
2023-10-29T17:45:39.930Z,2.08
2023-10-29T17:48:07.743Z,1.85
2023-10-29T17:50:35.524Z,2.20
2023-10-29T17:53:03.457Z,2.20
2023-10-29T17:55:31.151Z,1.70
2023-10-29T17:58:00.711Z,2.03
2023-10-29T18:00:29.518Z,1.80
2023-10-29T18:02:57.454Z,1.65
2023-10-29T18:05:25.261Z,2.08
2023-10-29T18:07:52.856Z,1.90
2023-10-29T18:10:20.443Z,1.77
2023-10-29T18:12:48.120Z,1.55
2023-10-29T18:15:15.853Z,1.77
2023-10-29T18:17:43.491Z,1.65
2023-10-29T18:20:11.819Z,1.60
2023-10-29T18:22:39.823Z,1.45
2023-10-29T18:25:07.746Z,1.50
2023-10-29T18:27:37.028Z,1.75
2023-10-29T18:30:07.462Z,1.60
2023-10-29T18:32:35.825Z,1.45
2023-10-29T18:35:03.519Z,1.40
2023-10-29T18:37:31.496Z,1.45
2023-10-29T18:39:59.142Z,1.65
2023-10-29T18:42:26.776Z,1.55
2023-10-29T18:44:54.486Z,1.80
2023-10-29T18:47:24.145Z,2.03
2023-10-29T18:49:51.840Z,2.03
2023-10-29T18:52:19.713Z,2.20
2023-10-29T18:54:47.388Z,2.30
2023-10-29T18:57:15.308Z,2.00
2023-10-29T18:59:43.107Z,2.40
2023-10-29T19:02:10.842Z,2.25
2023-10-29T19:04:38.905Z,2.08
2023-10-29T19:07:06.584Z,2.13
2023-10-29T19:09:34.246Z,2.40
2023-10-29T19:12:04.182Z,2.38
2023-10-29T19:14:34.213Z,2.40
2023-10-29T19:17:03.681Z,2.30
2023-10-29T19:19:31.243Z,2.70
2023-10-29T19:21:58.940Z,2.72
2023-10-29T19:24:26.563Z,2.58
2023-10-29T19:26:54.180Z,2.42
2023-10-29T19:29:21.808Z,2.53
2023-10-29T19:31:49.380Z,2.53
2023-10-29T19:34:17.311Z,2.10
2023-10-29T19:36:44.902Z,2.50
2023-10-29T19:39:16.653Z,2.67
2023-10-29T19:41:44.276Z,2.10
2023-10-29T19:44:11.896Z,2.75
2023-10-29T19:46:39.483Z,2.40
2023-10-29T19:49:07.395Z,2.70
2023-10-29T19:51:36.094Z,2.58
2023-10-29T19:54:04.064Z,2.63
2023-10-29T19:56:31.663Z,2.30
2023-10-29T19:59:00.988Z,2.28
2023-10-29T20:01:28.654Z,2.50
2023-10-29T20:03:58.834Z,2.35
2023-10-29T20:06:26.864Z,2.33
2023-10-29T20:08:56.657Z,2.72
2023-10-29T20:11:24.351Z,2.28
2023-10-29T20:13:51.981Z,2.40
2023-10-29T20:16:19.706Z,2.50
2023-10-29T20:18:47.911Z,2.55
2023-10-29T20:21:19.121Z,2.40
2023-10-29T20:23:48.220Z,2.47
2023-10-29T20:26:16.856Z,2.40
2023-10-29T20:28:44.562Z,2.53
2023-10-29T20:31:12.158Z,2.33
2023-10-29T20:33:40.450Z,2.60
2023-10-29T20:36:08.344Z,2.35
2023-10-29T20:38:36.149Z,2.40
2023-10-29T20:41:09.761Z,3.20
2023-10-29T20:43:37.994Z,2.67
2023-10-29T20:46:05.806Z,2.47
2023-10-29T20:48:33.693Z,2.47
2023-10-29T20:51:02.092Z,2.38
2023-10-29T20:53:30.333Z,3.17
2023-10-29T20:55:58.961Z,3.15
2023-10-29T20:58:26.562Z,3.30
2023-10-29T21:00:54.671Z,3.20
2023-10-29T21:03:22.298Z,3.72
2023-10-29T21:05:56.669Z,3.30
2023-10-29T21:08:25.314Z,3.22
2023-10-29T21:10:53.568Z,3.20
2023-10-29T21:13:21.207Z,2.90
2023-10-29T21:15:48.787Z,3.17
2023-10-29T21:18:16.478Z,3.13
2023-10-29T21:20:45.993Z,3.13
2023-10-29T21:23:13.617Z,3.10
2023-10-29T21:25:41.235Z,3.28
2023-10-29T21:28:08.994Z,3.67
2023-10-29T21:30:38.615Z,3.95
2023-10-29T21:33:06.300Z,4.00
2023-10-29T21:35:35.634Z,3.47
2023-10-29T21:38:03.321Z,3.42
2023-10-29T21:40:34.546Z,3.47
2023-10-29T21:43:02.246Z,4.03
2023-10-29T21:45:29.928Z,4.60
2023-10-29T21:47:57.767Z,4.20
2023-10-29T21:50:25.375Z,3.75
2023-10-29T21:52:53.323Z,4.10
2023-10-29T21:55:20.960Z,3.72
2023-10-29T21:57:49.033Z,3.38
2023-10-29T22:00:17.048Z,3.83
2023-10-29T22:02:44.723Z,3.42
2023-10-29T22:05:12.334Z,3.85
2023-10-29T22:07:39.923Z,3.30
2023-10-29T22:10:08.094Z,3.75
2023-10-29T22:12:35.975Z,3.58
2023-10-29T22:15:03.694Z,3.50
2023-10-29T22:17:31.551Z,3.28
2023-10-29T22:19:59.163Z,3.10
2023-10-29T22:22:26.767Z,3.40
2023-10-29T22:24:54.332Z,3.35
2023-10-29T22:27:22.011Z,3.17
2023-10-29T22:29:49.794Z,3.40
2023-10-29T22:32:17.608Z,3.63
2023-10-29T22:34:45.412Z,3.22
2023-10-29T22:37:13.230Z,3.03
2023-10-29T22:39:40.831Z,3.42
2023-10-29T22:42:08.503Z,3.08
2023-10-29T22:44:36.083Z,3.30
2023-10-29T22:47:03.909Z,3.35
2023-10-29T22:49:31.569Z,3.25
2023-10-29T22:51:59.170Z,3.40
2023-10-29T22:54:26.985Z,3.22
2023-10-29T22:56:54.608Z,2.97
2023-10-29T22:59:22.248Z,3.80
2023-10-29T23:01:51.146Z,2.90
2023-10-29T23:04:18.772Z,3.03
2023-10-29T23:06:46.420Z,2.88
2023-10-29T23:09:14.012Z,3.33
2023-10-29T23:11:41.688Z,3.05
2023-10-29T23:14:09.343Z,3.00
2023-10-29T23:16:36.942Z,2.85
2023-10-29T23:19:04.584Z,3.40
2023-10-29T23:21:32.231Z,2.80
2023-10-29T23:23:59.838Z,3.40
2023-10-29T23:26:27.787Z,2.80
2023-10-29T23:28:55.366Z,2.97
2023-10-29T23:31:23.071Z,3.08
2023-10-29T23:33:50.721Z,2.92
2023-10-29T23:36:18.393Z,2.75
2023-10-29T23:38:45.991Z,3.20
2023-10-29T23:41:13.602Z,2.80
2023-10-29T23:43:41.228Z,2.70
2023-10-29T23:46:08.837Z,2.72
2023-10-29T23:48:36.458Z,3.00
2023-10-29T23:51:04.558Z,2.88
2023-10-29T23:53:32.170Z,3.13
2023-10-29T23:55:59.740Z,2.92
2023-10-29T23:58:27.355Z,2.80
